sensor_id;sensor_type;location;lat;lon;timestamp;pressure;altitude;pressure_sealevel;temperature;humidity
6194;BME280;3130;41.564;23.280;2023-03-15T00:01:00;98043.03;;;8.86;66.61
6194;BME280;3130;41.564;23.280;2023-03-15T00:03:28;97935.19;;;8.19;67.90
6194;BME280;3130;41.564;23.280;2023-03-15T00:05:55;98017.47;;;8.74;66.70
6194;BME280;3130;41.564;23.280;2023-03-15T00:08:24;98057.41;;;8.99;68.39
6194;BME280;3130;41.564;23.280;2023-03-15T00:10:51;98045.97;;;8.80;68.65
6194;BME280;3130;41.564;23.280;2023-03-15T00:13:18;98029.50;;;8.59;68.46
6194;BME280;3130;41.564;23.280;2023-03-15T00:15:47;98045.03;;;8.69;68.64
6194;BME280;3130;41.564;23.280;2023-03-15T00:18:14;98063.34;;;8.75;68.22
6194;BME280;3130;41.564;23.280;2023-03-15T00:20:42;98064.69;;;8.68;68.42
6194;BME280;3130;41.564;23.280;2023-03-15T00:23:09;98059.34;;;8.59;68.44
6194;BME280;3130;41.564;23.280;2023-03-15T00:25:38;98052.47;;;8.47;68.62
6194;BME280;3130;41.564;23.280;2023-03-15T00:28:05;98054.41;;;8.43;69.45
6194;BME280;3130;41.564;23.280;2023-03-15T00:30:32;98014.03;;;8.23;69.32
6194;BME280;3130;41.564;23.280;2023-03-15T00:33:00;98036.50;;;8.31;69.97
6194;BME280;3130;41.564;23.280;2023-03-15T00:35:30;98032.00;;;8.22;70.77
6194;BME280;3130;41.564;23.280;2023-03-15T00:37:58;98031.50;;;8.29;71.11
6194;BME280;3130;41.564;23.280;2023-03-15T00:40:25;97958.91;;;7.95;70.94
6194;BME280;3130;41.564;23.280;2023-03-15T00:42:54;97944.81;;;7.89;70.63
6194;BME280;3130;41.564;23.280;2023-03-15T00:45:22;97990.25;;;8.23;70.99
6194;BME280;3130;41.564;23.280;2023-03-15T00:47:50;97994.13;;;8.28;70.46
6194;BME280;3130;41.564;23.280;2023-03-15T00:50:18;97930.19;;;7.91;70.87
6194;BME280;3130;41.564;23.280;2023-03-15T00:52:45;97896.16;;;7.53;71.22
6194;BME280;3130;41.564;23.280;2023-03-15T00:55:14;98005.38;;;8.12;71.30
6194;BME280;3130;41.564;23.280;2023-03-15T00:57:43;97987.28;;;8.02;71.71
6194;BME280;3130;41.564;23.280;2023-03-15T01:00:15;97993.06;;;8.18;72.11
6194;BME280;3130;41.564;23.280;2023-03-15T01:02:44;97995.63;;;8.18;72.21
6194;BME280;3130;41.564;23.280;2023-03-15T01:05:12;98005.47;;;8.37;71.38
6194;BME280;3130;41.564;23.280;2023-03-15T01:07:39;97968.56;;;8.16;71.10
6194;BME280;3130;41.564;23.280;2023-03-15T01:10:07;97987.03;;;8.19;70.76
6194;BME280;3130;41.564;23.280;2023-03-15T01:12:34;97976.16;;;8.03;71.04
6194;BME280;3130;41.564;23.280;2023-03-15T01:15:03;98003.31;;;8.04;72.03
6194;BME280;3130;41.564;23.280;2023-03-15T01:17:32;97989.09;;;7.88;72.05
6194;BME280;3130;41.564;23.280;2023-03-15T01:20:00;97987.50;;;7.73;72.50
6194;BME280;3130;41.564;23.280;2023-03-15T01:22:28;97994.34;;;7.73;73.09
6194;BME280;3130;41.564;23.280;2023-03-15T01:24:55;97873.00;;;7.03;73.47
6194;BME280;3130;41.564;23.280;2023-03-15T01:27:23;97976.13;;;7.52;74.32
6194;BME280;3130;41.564;23.280;2023-03-15T01:29:50;97891.66;;;7.04;74.65
6194;BME280;3130;41.564;23.280;2023-03-15T01:32:17;97867.47;;;6.97;74.50
6194;BME280;3130;41.564;23.280;2023-03-15T01:34:45;97960.28;;;7.74;74.45
6194;BME280;3130;41.564;23.280;2023-03-15T01:37:13;97843.06;;;7.07;74.73
6194;BME280;3130;41.564;23.280;2023-03-15T01:39:40;97930.69;;;7.71;74.22
6194;BME280;3130;41.564;23.280;2023-03-15T01:42:07;97945.50;;;7.79;74.18
6194;BME280;3130;41.564;23.280;2023-03-15T01:44:50;97939.31;;;7.69;74.64
6194;BME280;3130;41.564;23.280;2023-03-15T01:47:18;97918.84;;;7.70;74.86
6194;BME280;3130;41.564;23.280;2023-03-15T01:49:49;97926.09;;;7.76;74.32
6194;BME280;3130;41.564;23.280;2023-03-15T01:52:20;97894.81;;;7.60;75.02
6194;BME280;3130;41.564;23.280;2023-03-15T01:54:51;97913.50;;;7.73;74.98
6194;BME280;3130;41.564;23.280;2023-03-15T01:57:24;97892.47;;;7.57;74.85
6194;BME280;3130;41.564;23.280;2023-03-15T01:59:57;97917.63;;;7.76;74.66
6194;BME280;3130;41.564;23.280;2023-03-15T02:02:27;97887.59;;;7.67;74.28
6194;BME280;3130;41.564;23.280;2023-03-15T02:05:00;97902.88;;;7.67;74.96
6194;BME280;3130;41.564;23.280;2023-03-15T02:07:31;97897.28;;;7.62;75.41
6194;BME280;3130;41.564;23.280;2023-03-15T02:10:01;97867.81;;;7.31;75.44
6194;BME280;3130;41.564;23.280;2023-03-15T02:12:32;97871.66;;;7.24;75.84
6194;BME280;3130;41.564;23.280;2023-03-15T02:15:03;97899.19;;;7.19;76.10
6194;BME280;3130;41.564;23.280;2023-03-15T02:17:34;97903.34;;;7.20;76.27
6194;BME280;3130;41.564;23.280;2023-03-15T02:20:14;97900.25;;;7.29;76.83
6194;BME280;3130;41.564;23.280;2023-03-15T02:22:51;97905.03;;;7.34;76.31
6194;BME280;3130;41.564;23.280;2023-03-15T02:25:27;97897.63;;;7.17;77.24
6194;BME280;3130;41.564;23.280;2023-03-15T02:27:57;97902.66;;;7.04;77.38
6194;BME280;3130;41.564;23.280;2023-03-15T02:30:25;97866.97;;;6.78;78.14
6194;BME280;3130;41.564;23.280;2023-03-15T02:32:52;97820.53;;;6.61;78.07
6194;BME280;3130;41.564;23.280;2023-03-15T02:35:23;97880.56;;;7.05;77.85
6194;BME280;3130;41.564;23.280;2023-03-15T02:37:50;97802.09;;;6.57;78.00
6194;BME280;3130;41.564;23.280;2023-03-15T02:40:20;97779.47;;;6.39;77.88
6194;BME280;3130;41.564;23.280;2023-03-15T02:42:51;97864.50;;;6.91;78.73
6194;BME280;3130;41.564;23.280;2023-03-15T02:45:21;97837.78;;;6.84;78.65
6194;BME280;3130;41.564;23.280;2023-03-15T02:47:49;97841.66;;;6.89;78.37
6194;BME280;3130;41.564;23.280;2023-03-15T02:50:16;97840.69;;;6.78;78.73
6194;BME280;3130;41.564;23.280;2023-03-15T02:52:44;97847.31;;;6.80;78.86
6194;BME280;3130;41.564;23.280;2023-03-15T02:55:11;97774.09;;;6.43;78.90
6194;BME280;3130;41.564;23.280;2023-03-15T02:57:38;97824.75;;;6.88;78.56
6194;BME280;3130;41.564;23.280;2023-03-15T03:00:07;97845.44;;;6.96;78.93
6194;BME280;3130;41.564;23.280;2023-03-15T03:02:39;97746.50;;;6.37;78.49
6194;BME280;3130;41.564;23.280;2023-03-15T03:05:07;97850.91;;;7.04;78.65
6194;BME280;3130;41.564;23.280;2023-03-15T03:07:35;97846.59;;;7.04;78.87
6194;BME280;3130;41.564;23.280;2023-03-15T03:10:02;97848.84;;;6.97;78.81
6194;BME280;3130;41.564;23.280;2023-03-15T03:12:29;97842.88;;;6.84;79.20
6194;BME280;3130;41.564;23.280;2023-03-15T03:14:56;97851.06;;;6.75;79.66
6194;BME280;3130;41.564;23.280;2023-03-15T03:17:23;97755.97;;;6.07;79.97
6194;BME280;3130;41.564;23.280;2023-03-15T03:19:52;97832.84;;;6.54;80.15
6194;BME280;3130;41.564;23.280;2023-03-15T03:22:19;97820.56;;;6.47;80.10
6194;BME280;3130;41.564;23.280;2023-03-15T03:24:49;97827.44;;;6.59;81.15
6194;BME280;3130;41.564;23.280;2023-03-15T03:27:16;97816.19;;;6.63;81.02
6194;BME280;3130;41.564;23.280;2023-03-15T03:29:44;97808.00;;;6.58;80.98
6194;BME280;3130;41.564;23.280;2023-03-15T03:32:11;97821.78;;;6.68;81.10
6194;BME280;3130;41.564;23.280;2023-03-15T03:34:38;97837.13;;;6.80;80.35
6194;BME280;3130;41.564;23.280;2023-03-15T03:37:07;97820.22;;;6.79;80.73
6194;BME280;3130;41.564;23.280;2023-03-15T03:39:34;97826.75;;;6.83;80.61
6194;BME280;3130;41.564;23.280;2023-03-15T03:42:01;97800.84;;;6.77;81.27
6194;BME280;3130;41.564;23.280;2023-03-15T03:44:29;97745.09;;;6.46;81.15
6194;BME280;3130;41.564;23.280;2023-03-15T03:46:56;97775.94;;;6.68;81.20
6194;BME280;3130;41.564;23.280;2023-03-15T03:49:23;97796.47;;;6.79;81.21
6194;BME280;3130;41.564;23.280;2023-03-15T03:51:50;97799.56;;;6.84;81.48
6194;BME280;3130;41.564;23.280;2023-03-15T03:54:19;97796.47;;;6.79;81.46
6194;BME280;3130;41.564;23.280;2023-03-15T03:56:47;97779.13;;;6.71;82.08
6194;BME280;3130;41.564;23.280;2023-03-15T03:59:14;97776.22;;;6.63;82.53
6194;BME280;3130;41.564;23.280;2023-03-15T04:01:42;97689.91;;;6.20;82.04
6194;BME280;3130;41.564;23.280;2023-03-15T04:04:09;97778.03;;;6.75;81.62
6194;BME280;3130;41.564;23.280;2023-03-15T04:06:39;97785.28;;;6.81;82.25
6194;BME280;3130;41.564;23.280;2023-03-15T04:09:10;97694.31;;;6.30;81.88
6194;BME280;3130;41.564;23.280;2023-03-15T04:11:40;97782.34;;;6.87;81.88
6194;BME280;3130;41.564;23.280;2023-03-15T04:14:08;97719.06;;;6.55;81.52
6194;BME280;3130;41.564;23.280;2023-03-15T04:16:36;97784.72;;;6.90;81.84
6194;BME280;3130;41.564;23.280;2023-03-15T04:19:04;97793.06;;;6.92;81.63
6194;BME280;3130;41.564;23.280;2023-03-15T04:21:31;97785.31;;;6.94;82.09
6194;BME280;3130;41.564;23.280;2023-03-15T04:23:59;97778.28;;;6.97;82.10
6194;BME280;3130;41.564;23.280;2023-03-15T04:26:27;97781.03;;;6.94;81.90
6194;BME280;3130;41.564;23.280;2023-03-15T04:28:57;97710.81;;;6.51;82.63
6194;BME280;3130;41.564;23.280;2023-03-15T04:31:24;97778.94;;;7.00;82.46
6194;BME280;3130;41.564;23.280;2023-03-15T04:33:52;97750.69;;;7.03;81.98
6194;BME280;3130;41.564;23.280;2023-03-15T04:36:20;97724.59;;;7.00;81.65
6194;BME280;3130;41.564;23.280;2023-03-15T04:38:47;97800.56;;;7.59;81.69
6194;BME280;3130;41.564;23.280;2023-03-15T04:41:14;97699.44;;;7.08;80.81
6194;BME280;3130;41.564;23.280;2023-03-15T04:43:42;97729.22;;;7.32;80.52
6194;BME280;3130;41.564;23.280;2023-03-15T04:46:11;97814.16;;;7.97;80.04
6194;BME280;3130;41.564;23.280;2023-03-15T04:48:38;97816.78;;;8.07;79.53
6194;BME280;3130;41.564;23.280;2023-03-15T04:51:06;97819.84;;;8.12;79.09
6194;BME280;3130;41.564;23.280;2023-03-15T04:53:33;97813.44;;;8.19;78.54
6194;BME280;3130;41.564;23.280;2023-03-15T04:56:00;97802.50;;;8.17;78.42
6194;BME280;3130;41.564;23.280;2023-03-15T04:58:27;97827.50;;;8.37;78.32
6194;BME280;3130;41.564;23.280;2023-03-15T05:00:54;97753.63;;;7.98;77.73
6194;BME280;3130;41.564;23.280;2023-03-15T05:03:23;97767.56;;;8.05;77.55
6194;BME280;3130;41.564;23.280;2023-03-15T05:05:50;97733.69;;;7.91;77.45
6194;BME280;3130;41.564;23.280;2023-03-15T05:08:17;97713.78;;;7.84;76.76
6194;BME280;3130;41.564;23.280;2023-03-15T05:10:44;97823.59;;;8.57;77.04
6194;BME280;3130;41.564;23.280;2023-03-15T05:13:11;97735.59;;;8.12;76.53
6194;BME280;3130;41.564;23.280;2023-03-15T05:15:39;97806.41;;;8.59;76.46
6194;BME280;3130;41.564;23.280;2023-03-15T05:18:06;97738.59;;;8.19;75.95
6194;BME280;3130;41.564;23.280;2023-03-15T05:20:34;97801.97;;;8.73;76.01
6194;BME280;3130;41.564;23.280;2023-03-15T05:23:01;97794.09;;;8.76;75.80
6194;BME280;3130;41.564;23.280;2023-03-15T05:25:29;97784.06;;;8.73;75.00
6194;BME280;3130;41.564;23.280;2023-03-15T05:27:56;97762.28;;;8.57;75.28
6194;BME280;3130;41.564;23.280;2023-03-15T05:30:23;97795.84;;;8.76;74.49
6194;BME280;3130;41.564;23.280;2023-03-15T05:32:50;97798.31;;;8.88;74.58
6194;BME280;3130;41.564;23.280;2023-03-15T05:35:18;97797.81;;;8.96;73.94
6194;BME280;3130;41.564;23.280;2023-03-15T05:37:46;97790.81;;;8.98;73.42
6194;BME280;3130;41.564;23.280;2023-03-15T05:40:13;97718.09;;;8.67;73.05
6194;BME280;3130;41.564;23.280;2023-03-15T05:42:41;97792.13;;;9.26;72.50
6194;BME280;3130;41.564;23.280;2023-03-15T05:45:08;97736.00;;;9.01;71.99
6194;BME280;3130;41.564;23.280;2023-03-15T05:47:36;97787.88;;;9.49;70.53
6194;BME280;3130;41.564;23.280;2023-03-15T05:50:03;97788.59;;;9.62;69.80
6194;BME280;3130;41.564;23.280;2023-03-15T05:52:31;97778.97;;;9.76;69.10
6194;BME280;3130;41.564;23.280;2023-03-15T05:54:59;97706.78;;;9.38;68.60
6194;BME280;3130;41.564;23.280;2023-03-15T05:57:26;97725.22;;;9.65;67.82
6194;BME280;3130;41.564;23.280;2023-03-15T05:59:54;97794.03;;;10.13;67.79
6194;BME280;3130;41.564;23.280;2023-03-15T06:02:21;97699.72;;;9.53;68.70
6194;BME280;3130;41.564;23.280;2023-03-15T06:04:48;97795.56;;;10.16;68.98
6194;BME280;3130;41.564;23.280;2023-03-15T06:07:16;97787.50;;;10.31;68.37
6194;BME280;3130;41.564;23.280;2023-03-15T06:09:43;97709.16;;;9.96;67.91
6194;BME280;3130;41.564;23.280;2023-03-15T06:12:12;97787.69;;;10.72;67.20
6194;BME280;3130;41.564;23.280;2023-03-15T06:14:39;97789.53;;;10.81;66.71
6194;BME280;3130;41.564;23.280;2023-03-15T06:17:06;97795.69;;;10.90;66.00
6194;BME280;3130;41.564;23.280;2023-03-15T06:19:34;97803.03;;;10.94;65.64
6194;BME280;3130;41.564;23.280;2023-03-15T06:22:01;97810.50;;;10.86;66.15
6194;BME280;3130;41.564;23.280;2023-03-15T06:24:28;97768.72;;;10.64;66.31
6194;BME280;3130;41.564;23.280;2023-03-15T06:26:55;97766.34;;;10.72;65.55
6194;BME280;3130;41.564;23.280;2023-03-15T06:29:24;97826.41;;;11.11;65.68
6194;BME280;3130;41.564;23.280;2023-03-15T06:31:51;97835.25;;;11.18;64.93
6194;BME280;3130;41.564;23.280;2023-03-15T06:34:18;97819.88;;;11.07;64.65
6194;BME280;3130;41.564;23.280;2023-03-15T06:36:47;97834.31;;;11.19;64.61
6194;BME280;3130;41.564;23.280;2023-03-15T06:39:14;97845.91;;;11.34;64.01
6194;BME280;3130;41.564;23.280;2023-03-15T06:41:41;97758.97;;;10.89;64.06
6194;BME280;3130;41.564;23.280;2023-03-15T06:44:08;97734.31;;;10.77;63.87
6194;BME280;3130;41.564;23.280;2023-03-15T06:46:37;97824.91;;;11.40;62.94
6194;BME280;3130;41.564;23.280;2023-03-15T06:49:04;97858.50;;;11.69;63.35
6194;BME280;3130;41.564;23.280;2023-03-15T06:51:31;97858.34;;;11.81;63.61
6194;BME280;3130;41.564;23.280;2023-03-15T06:53:59;97768.06;;;11.45;61.81
6194;BME280;3130;41.564;23.280;2023-03-15T06:56:26;97843.47;;;12.05;61.56
6194;BME280;3130;41.564;23.280;2023-03-15T06:58:53;97846.44;;;11.80;60.25
6194;BME280;3130;41.564;23.280;2023-03-15T07:01:20;97830.31;;;11.58;61.61
6194;BME280;3130;41.564;23.280;2023-03-15T07:03:49;97812.16;;;11.50;62.67
6194;BME280;3130;41.564;23.280;2023-03-15T07:06:16;97823.06;;;11.83;61.71
6194;BME280;3130;41.564;23.280;2023-03-15T07:08:43;97814.22;;;11.97;60.49
6194;BME280;3130;41.564;23.280;2023-03-15T07:11:12;97823.09;;;12.13;59.74
6194;BME280;3130;41.564;23.280;2023-03-15T07:13:39;97789.53;;;12.05;58.40
6194;BME280;3130;41.564;23.280;2023-03-15T07:16:07;97688.31;;;11.37;58.32
6194;BME280;3130;41.564;23.280;2023-03-15T07:18:35;97810.97;;;12.24;58.24
6194;BME280;3130;41.564;23.280;2023-03-15T07:21:04;97748.53;;;12.03;58.07
6194;BME280;3130;41.564;23.280;2023-03-15T07:23:33;97806.59;;;12.45;57.43
6194;BME280;3130;41.564;23.280;2023-03-15T07:26:00;97797.69;;;12.49;57.27
6194;BME280;3130;41.564;23.280;2023-03-15T07:28:27;97734.59;;;11.97;56.30
6194;BME280;3130;41.564;23.280;2023-03-15T07:30:56;97732.47;;;12.02;55.03
6194;BME280;3130;41.564;23.280;2023-03-15T07:33:24;97781.50;;;12.28;55.02
6194;BME280;3130;41.564;23.280;2023-03-15T07:35:52;97789.19;;;12.19;53.99
6194;BME280;3130;41.564;23.280;2023-03-15T07:38:22;97818.09;;;12.41;54.42
6194;BME280;3130;41.564;23.280;2023-03-15T07:40:51;97811.91;;;12.53;54.79
6194;BME280;3130;41.564;23.280;2023-03-15T07:43:18;97827.13;;;12.75;55.43
6194;BME280;3130;41.564;23.280;2023-03-15T07:45:46;97753.06;;;12.60;54.91
6194;BME280;3130;41.564;23.280;2023-03-15T07:48:13;97805.84;;;13.31;54.43
6194;BME280;3130;41.564;23.280;2023-03-15T07:50:41;97810.72;;;13.34;54.32
6194;BME280;3130;41.564;23.280;2023-03-15T07:53:08;97819.94;;;13.27;54.63
6194;BME280;3130;41.564;23.280;2023-03-15T07:55:36;97813.84;;;13.28;54.67
6194;BME280;3130;41.564;23.280;2023-03-15T07:58:03;97793.75;;;13.04;55.46
6194;BME280;3130;41.564;23.280;2023-03-15T08:00:31;97796.31;;;12.94;55.14
6194;BME280;3130;41.564;23.280;2023-03-15T08:02:58;97784.69;;;12.51;55.97
6194;BME280;3130;41.564;23.280;2023-03-15T08:05:25;97815.47;;;12.32;56.19
6194;BME280;3130;41.564;23.280;2023-03-15T08:07:53;97817.59;;;12.17;58.20
6194;BME280;3130;41.564;23.280;2023-03-15T08:10:21;97823.13;;;12.22;57.51
6194;BME280;3130;41.564;23.280;2023-03-15T08:12:49;97732.09;;;11.56;56.29
6194;BME280;3130;41.564;23.280;2023-03-15T08:15:17;97835.84;;;12.14;57.08
6194;BME280;3130;41.564;23.280;2023-03-15T08:17:46;97821.25;;;12.24;57.40
6194;BME280;3130;41.564;23.280;2023-03-15T08:20:13;97761.47;;;11.63;57.70
6194;BME280;3130;41.564;23.280;2023-03-15T08:22:42;97809.00;;;12.07;57.66
6194;BME280;3130;41.564;23.280;2023-03-15T08:25:12;97813.34;;;12.07;57.71
6194;BME280;3130;41.564;23.280;2023-03-15T08:27:40;97821.59;;;12.10;58.55
6194;BME280;3130;41.564;23.280;2023-03-15T08:30:10;97810.84;;;11.96;56.53
6194;BME280;3130;41.564;23.280;2023-03-15T08:32:38;97704.91;;;11.33;57.99
6194;BME280;3130;41.564;23.280;2023-03-15T08:35:06;97812.34;;;11.99;58.45
6194;BME280;3130;41.564;23.280;2023-03-15T08:37:34;97806.44;;;12.07;59.00
6194;BME280;3130;41.564;23.280;2023-03-15T08:40:01;97817.94;;;11.83;59.06
6194;BME280;3130;41.564;23.280;2023-03-15T08:42:34;97816.53;;;11.79;59.91
6194;BME280;3130;41.564;23.280;2023-03-15T08:45:01;97809.19;;;11.86;59.67
6194;BME280;3130;41.564;23.280;2023-03-15T08:47:30;97813.00;;;11.91;59.96
6194;BME280;3130;41.564;23.280;2023-03-15T08:49:59;97810.53;;;11.90;59.39
6194;BME280;3130;41.564;23.280;2023-03-15T08:52:30;97808.84;;;12.00;59.63
6194;BME280;3130;41.564;23.280;2023-03-15T08:54:57;97805.75;;;12.05;57.73
6194;BME280;3130;41.564;23.280;2023-03-15T08:57:24;97817.06;;;11.94;57.87
6194;BME280;3130;41.564;23.280;2023-03-15T08:59:53;97820.13;;;12.08;57.72
6194;BME280;3130;41.564;23.280;2023-03-15T09:02:20;97815.97;;;11.96;58.15
6194;BME280;3130;41.564;23.280;2023-03-15T09:04:49;97808.06;;;12.08;58.00
6194;BME280;3130;41.564;23.280;2023-03-15T09:07:16;97801.47;;;12.15;58.02
6194;BME280;3130;41.564;23.280;2023-03-15T09:09:43;97814.53;;;12.33;57.83
6194;BME280;3130;41.564;23.280;2023-03-15T09:12:13;97693.66;;;11.75;57.58
6194;BME280;3130;41.564;23.280;2023-03-15T09:14:41;97808.66;;;12.51;58.06
6194;BME280;3130;41.564;23.280;2023-03-15T09:17:09;97784.00;;;12.49;57.78
6194;BME280;3130;41.564;23.280;2023-03-15T09:19:36;97799.97;;;12.43;58.85
6194;BME280;3130;41.564;23.280;2023-03-15T09:22:05;97753.81;;;12.02;59.53
6194;BME280;3130;41.564;23.280;2023-03-15T09:24:32;97792.41;;;12.11;60.37
6194;BME280;3130;41.564;23.280;2023-03-15T09:26:59;97789.81;;;11.82;62.50
6194;BME280;3130;41.564;23.280;2023-03-15T09:29:26;97775.09;;;11.84;62.64
6194;BME280;3130;41.564;23.280;2023-03-15T09:31:53;97737.81;;;11.48;63.14
6194;BME280;3130;41.564;23.280;2023-03-15T09:34:22;97794.63;;;11.96;63.14
6194;BME280;3130;41.564;23.280;2023-03-15T09:36:49;97765.06;;;11.81;62.98
6194;BME280;3130;41.564;23.280;2023-03-15T09:39:20;97792.75;;;11.98;62.50
6194;BME280;3130;41.564;23.280;2023-03-15T09:41:50;97788.41;;;11.98;61.93
6194;BME280;3130;41.564;23.280;2023-03-15T09:44:32;97753.81;;;11.72;61.73
6194;BME280;3130;41.564;23.280;2023-03-15T09:47:09;97782.66;;;11.85;61.79
6194;BME280;3130;41.564;23.280;2023-03-15T09:49:44;97786.59;;;11.89;61.83
6194;BME280;3130;41.564;23.280;2023-03-15T09:52:21;97738.44;;;11.41;62.37
6194;BME280;3130;41.564;23.280;2023-03-15T09:54:57;97689.63;;;11.11;62.82
6194;BME280;3130;41.564;23.280;2023-03-15T09:57:34;97706.53;;;11.13;63.84
6194;BME280;3130;41.564;23.280;2023-03-15T10:00:04;97690.41;;;11.22;64.07
6194;BME280;3130;41.564;23.280;2023-03-15T10:02:39;97715.34;;;11.61;63.18
6194;BME280;3130;41.564;23.280;2023-03-15T10:05:12;97789.06;;;12.20;62.19
6194;BME280;3130;41.564;23.280;2023-03-15T10:07:43;97790.09;;;12.38;61.57
6194;BME280;3130;41.564;23.280;2023-03-15T10:10:17;97642.66;;;11.61;60.23
6194;BME280;3130;41.564;23.280;2023-03-15T10:12:50;97772.00;;;12.59;58.44
6194;BME280;3130;41.564;23.280;2023-03-15T10:15:28;97769.75;;;12.84;57.37
6194;BME280;3130;41.564;23.280;2023-03-15T10:18:10;97775.44;;;12.88;54.74
6194;BME280;3130;41.564;23.280;2023-03-15T10:20:46;97771.91;;;12.89;54.22
6194;BME280;3130;41.564;23.280;2023-03-15T10:23:18;97769.38;;;13.07;55.57
6194;BME280;3130;41.564;23.280;2023-03-15T10:25:49;97763.97;;;13.10;53.03
6194;BME280;3130;41.564;23.280;2023-03-15T10:28:23;97707.84;;;12.76;52.67
6194;BME280;3130;41.564;23.280;2023-03-15T10:30:53;97774.41;;;13.28;51.91
6194;BME280;3130;41.564;23.280;2023-03-15T10:33:27;97740.41;;;13.15;51.53
6194;BME280;3130;41.564;23.280;2023-03-15T10:35:57;97734.25;;;13.54;51.80
6194;BME280;3130;41.564;23.280;2023-03-15T10:38:25;97749.34;;;13.20;48.73
6194;BME280;3130;41.564;23.280;2023-03-15T10:40:56;97751.50;;;13.44;47.69
6194;BME280;3130;41.564;23.280;2023-03-15T10:43:25;97733.88;;;13.39;46.17
6194;BME280;3130;41.564;23.280;2023-03-15T10:45:59;97665.09;;;13.04;46.63
6194;BME280;3130;41.564;23.280;2023-03-15T10:48:27;97756.91;;;13.50;46.66
6194;BME280;3130;41.564;23.280;2023-03-15T10:50:54;97747.44;;;13.32;47.93
6194;BME280;3130;41.564;23.280;2023-03-15T10:53:22;97751.63;;;13.52;48.07
6194;BME280;3130;41.564;23.280;2023-03-15T10:55:59;97745.66;;;13.61;48.89
6194;BME280;3130;41.564;23.280;2023-03-15T10:58:29;97705.47;;;13.12;49.77
6194;BME280;3130;41.564;23.280;2023-03-15T11:01:01;97679.75;;;12.94;51.13
6194;BME280;3130;41.564;23.280;2023-03-15T11:03:32;97741.84;;;13.46;50.85
6194;BME280;3130;41.564;23.280;2023-03-15T11:06:00;97739.97;;;13.48;49.82
6194;BME280;3130;41.564;23.280;2023-03-15T11:08:36;97695.25;;;13.30;49.38
6194;BME280;3130;41.564;23.280;2023-03-15T11:11:06;97737.13;;;13.51;49.16
6194;BME280;3130;41.564;23.280;2023-03-15T11:13:34;97678.63;;;13.24;48.50
6194;BME280;3130;41.564;23.280;2023-03-15T11:16:03;97746.59;;;13.60;48.22
6194;BME280;3130;41.564;23.280;2023-03-15T11:18:35;97737.13;;;13.41;49.02
6194;BME280;3130;41.564;23.280;2023-03-15T11:21:05;97672.13;;;13.11;50.06
6194;BME280;3130;41.564;23.280;2023-03-15T11:23:36;97716.41;;;13.33;50.58
6194;BME280;3130;41.564;23.280;2023-03-15T11:26:07;97732.78;;;13.61;50.84
6194;BME280;3130;41.564;23.280;2023-03-15T11:28:35;97741.16;;;13.63;51.99
6194;BME280;3130;41.564;23.280;2023-03-15T11:31:04;97677.00;;;13.23;52.48
6194;BME280;3130;41.564;23.280;2023-03-15T11:33:38;97741.72;;;13.57;52.79
6194;BME280;3130;41.564;23.280;2023-03-15T11:36:13;97659.69;;;13.07;52.03
6194;BME280;3130;41.564;23.280;2023-03-15T11:38:42;97730.75;;;13.55;51.91
6194;BME280;3130;41.564;23.280;2023-03-15T11:41:21;97736.56;;;13.57;51.72
6194;BME280;3130;41.564;23.280;2023-03-15T11:44:11;97732.38;;;13.56;51.83
6194;BME280;3130;41.564;23.280;2023-03-15T11:46:42;97671.31;;;13.20;52.59
6194;BME280;3130;41.564;23.280;2023-03-15T11:49:15;97670.47;;;13.29;52.61
6194;BME280;3130;41.564;23.280;2023-03-15T11:51:43;97717.69;;;13.66;51.74
6194;BME280;3130;41.564;23.280;2023-03-15T11:54:13;97671.53;;;13.45;50.50
6194;BME280;3130;41.564;23.280;2023-03-15T11:56:51;97696.72;;;13.61;49.37
6194;BME280;3130;41.564;23.280;2023-03-15T11:59:23;97613.88;;;13.10;48.95
6194;BME280;3130;41.564;23.280;2023-03-15T12:01:55;97673.94;;;13.47;47.88
6194;BME280;3130;41.564;23.280;2023-03-15T12:04:42;97676.00;;;13.43;47.61
6194;BME280;3130;41.564;23.280;2023-03-15T12:07:31;97687.72;;;13.65;47.63
6194;BME280;3130;41.564;23.280;2023-03-15T12:10:31;97666.28;;;13.74;46.63
6194;BME280;3130;41.564;23.280;2023-03-15T12:13:24;97685.28;;;13.73;44.41
6194;BME280;3130;41.564;23.280;2023-03-15T12:16:05;97595.09;;;12.91;45.64
6194;BME280;3130;41.564;23.280;2023-03-15T12:18:40;97589.41;;;12.87;46.04
6194;BME280;3130;41.564;23.280;2023-03-15T12:21:19;97660.75;;;13.23;46.20
6194;BME280;3130;41.564;23.280;2023-03-15T12:23:55;97683.47;;;13.37;44.95
6194;BME280;3130;41.564;23.280;2023-03-15T12:26:39;97685.75;;;13.49;44.54
6194;BME280;3130;41.564;23.280;2023-03-15T12:29:18;97679.75;;;13.58;43.23
6194;BME280;3130;41.564;23.280;2023-03-15T12:31:55;97681.97;;;13.44;39.62
6194;BME280;3130;41.564;23.280;2023-03-15T12:34:36;97686.28;;;13.53;39.91
6194;BME280;3130;41.564;23.280;2023-03-15T12:37:13;97668.38;;;13.61;39.22
6194;BME280;3130;41.564;23.280;2023-03-15T12:39:44;97694.34;;;13.77;38.25
6194;BME280;3130;41.564;23.280;2023-03-15T12:45:39;97681.44;;;13.40;38.30
6194;BME280;3130;41.564;23.280;2023-03-15T12:48:22;97653.44;;;13.09;39.75
6194;BME280;3130;41.564;23.280;2023-03-15T12:50:52;97561.56;;;12.45;40.02
6194;BME280;3130;41.564;23.280;2023-03-15T12:53:26;97619.63;;;12.95;40.25
6194;BME280;3130;41.564;23.280;2023-03-15T12:55:54;97668.81;;;13.37;40.24
6194;BME280;3130;41.564;23.280;2023-03-15T12:58:26;97626.13;;;12.99;39.91
6194;BME280;3130;41.564;23.280;2023-03-15T13:00:57;97583.88;;;12.73;40.30
6194;BME280;3130;41.564;23.280;2023-03-15T13:03:27;97658.56;;;13.18;40.37
6194;BME280;3130;41.564;23.280;2023-03-15T13:06:00;97669.41;;;13.22;41.05
6194;BME280;3130;41.564;23.280;2023-03-15T13:08:30;97515.31;;;12.26;40.72
6194;BME280;3130;41.564;23.280;2023-03-15T13:11:15;97650.03;;;13.27;40.76
6194;BME280;3130;41.564;23.280;2023-03-15T13:13:59;97646.91;;;13.33;40.91
6194;BME280;3130;41.564;23.280;2023-03-15T13:16:33;97658.00;;;13.34;40.97
6194;BME280;3130;41.564;23.280;2023-03-15T13:19:14;97606.19;;;13.01;41.47
6194;BME280;3130;41.564;23.280;2023-03-15T13:21:55;97656.81;;;13.28;40.13
6194;BME280;3130;41.564;23.280;2023-03-15T13:24:32;97648.69;;;13.23;40.19
6194;BME280;3130;41.564;23.280;2023-03-15T13:27:07;97598.06;;;13.05;39.63
6194;BME280;3130;41.564;23.280;2023-03-15T13:29:37;97657.44;;;13.49;39.11
6194;BME280;3130;41.564;23.280;2023-03-15T13:32:12;97639.41;;;13.49;38.83